sensor_id;sensor_type;location;lat;lon;timestamp;temperature;humidity
65235;DHT22;51820;48.374;10.930;2022-09-02T00:01:43;16.80;53.30
65235;DHT22;51820;48.374;10.930;2022-09-02T00:04:14;16.90;53.30
65235;DHT22;51820;48.374;10.930;2022-09-02T00:06:43;16.80;53.20
65235;DHT22;51820;48.374;10.930;2022-09-02T00:09:14;16.90;53.30
65235;DHT22;51820;48.374;10.930;2022-09-02T00:11:44;16.90;53.30
65235;DHT22;51820;48.374;10.930;2022-09-02T00:14:17;16.50;70.60
65235;DHT22;51820;48.374;10.930;2022-09-02T00:16:46;15.50;70.20
65235;DHT22;51820;48.374;10.930;2022-09-02T00:19:18;16.00;70.20
65235;DHT22;51820;48.374;10.930;2022-09-02T00:21:47;16.70;52.80
65235;DHT22;51820;48.374;10.930;2022-09-02T00:29:14;16.60;53.50
65235;DHT22;51820;48.374;10.930;2022-09-02T00:31:43;16.60;54.30
65235;DHT22;51820;48.374;10.930;2022-09-02T00:34:12;16.00;70.90
65235;DHT22;51820;48.374;10.930;2022-09-02T00:41:39;16.50;54.50
65235;DHT22;51820;48.374;10.930;2022-09-02T00:44:10;16.50;54.30
65235;DHT22;51820;48.374;10.930;2022-09-02T00:46:40;16.50;54.30
65235;DHT22;51820;48.374;10.930;2022-09-02T00:49:12;16.50;53.60
65235;DHT22;51820;48.374;10.930;2022-09-02T00:51:44;16.40;54.30
65235;DHT22;51820;48.374;10.930;2022-09-02T00:54:14;14.80;69.70
65235;DHT22;51820;48.374;10.930;2022-09-02T00:56:44;14.20;69.70
65235;DHT22;51820;48.374;10.930;2022-09-02T00:59:21;16.30;54.70
65235;DHT22;51820;48.374;10.930;2022-09-02T01:01:51;14.90;70.20
65235;DHT22;51820;48.374;10.930;2022-09-02T01:09:17;14.80;70.30
65235;DHT22;51820;48.374;10.930;2022-09-02T01:11:47;16.40;54.50
65235;DHT22;51820;48.374;10.930;2022-09-02T01:16:48;16.40;54.70
65235;DHT22;51820;48.374;10.930;2022-09-02T01:19:22;16.00;71.60
65235;DHT22;51820;48.374;10.930;2022-09-02T01:21:53;16.30;54.40
65235;DHT22;51820;48.374;10.930;2022-09-02T01:24:25;16.30;54.30
65235;DHT22;51820;48.374;10.930;2022-09-02T01:26:56;15.60;71.40
65235;DHT22;51820;48.374;10.930;2022-09-02T01:29:26;16.20;54.10
65235;DHT22;51820;48.374;10.930;2022-09-02T01:36:53;16.20;54.20
65235;DHT22;51820;48.374;10.930;2022-09-02T01:41:49;15.80;72.40
65235;DHT22;51820;48.374;10.930;2022-09-02T01:54:16;16.10;55.50
65235;DHT22;51820;48.374;10.930;2022-09-02T01:56:44;21.10;74.50
65235;DHT22;51820;48.374;10.930;2022-09-02T02:06:44;16.10;55.00
65235;DHT22;51820;48.374;10.930;2022-09-02T02:09:20;16.10;54.70
65235;DHT22;51820;48.374;10.930;2022-09-02T02:11:50;16.10;54.90
65235;DHT22;51820;48.374;10.930;2022-09-02T02:16:49;16.10;55.60
65235;DHT22;51820;48.374;10.930;2022-09-02T02:19:17;15.30;71.20
65235;DHT22;51820;48.374;10.930;2022-09-02T02:24:16;15.70;68.60
65235;DHT22;51820;48.374;10.930;2022-09-02T02:26:55;16.00;55.00
65235;DHT22;51820;48.374;10.930;2022-09-02T02:29:31;16.00;55.00
65235;DHT22;51820;48.374;10.930;2022-09-02T02:39:25;15.40;71.90
65235;DHT22;51820;48.374;10.930;2022-09-02T02:41:55;15.90;55.60
65235;DHT22;51820;48.374;10.930;2022-09-02T02:54:21;19.70;74.50
65235;DHT22;51820;48.374;10.930;2022-09-02T02:57:00;15.80;56.40
65235;DHT22;51820;48.374;10.930;2022-09-02T02:59:29;14.80;72.20
65235;DHT22;51820;48.374;10.930;2022-09-02T03:01:58;15.80;56.30
65235;DHT22;51820;48.374;10.930;2022-09-02T03:14:25;15.70;57.00
65235;DHT22;51820;48.374;10.930;2022-09-02T03:19:21;13.80;72.00
65235;DHT22;51820;48.374;10.930;2022-09-02T03:26:47;15.50;73.60
65235;DHT22;51820;48.374;10.930;2022-09-02T03:29:16;13.80;59.80
65235;DHT22;51820;48.374;10.930;2022-09-02T03:31:46;15.60;57.40
65235;DHT22;51820;48.374;10.930;2022-09-02T03:34:15;13.20;72.30
65235;DHT22;51820;48.374;10.930;2022-09-02T03:39:13;14.30;73.00
65235;DHT22;51820;48.374;10.930;2022-09-02T03:41:44;15.00;61.30
65235;DHT22;51820;48.374;10.930;2022-09-02T03:46:43;13.20;72.60
65235;DHT22;51820;48.374;10.930;2022-09-02T03:49:13;13.00;72.80
65235;DHT22;51820;48.374;10.930;2022-09-02T03:56:40;13.10;73.70
65235;DHT22;51820;48.374;10.930;2022-09-02T04:04:10;13.00;73.20
65235;DHT22;51820;48.374;10.930;2022-09-02T04:06:40;19.80;77.70
65235;DHT22;51820;48.374;10.930;2022-09-02T04:11:39;14.70;75.20
65235;DHT22;51820;48.374;10.930;2022-09-02T04:16:39;13.30;61.70
65235;DHT22;51820;48.374;10.930;2022-09-02T04:21:40;15.30;58.20
65235;DHT22;51820;48.374;10.930;2022-09-02T04:24:11;15.20;58.10
65235;DHT22;51820;48.374;10.930;2022-09-02T04:36:51;15.10;75.80
65235;DHT22;51820;48.374;10.930;2022-09-02T04:39:19;14.60;74.40
65235;DHT22;51820;48.374;10.930;2022-09-02T04:41:49;12.90;75.90
65235;DHT22;51820;48.374;10.930;2022-09-02T04:46:49;14.80;58.80
65235;DHT22;51820;48.374;10.930;2022-09-02T04:49:21;13.30;76.10
65235;DHT22;51820;48.374;10.930;2022-09-02T04:51:53;14.70;58.90
65235;DHT22;51820;48.374;10.930;2022-09-02T05:02:03;18.90;79.30
65235;DHT22;51820;48.374;10.930;2022-09-02T05:04:33;14.50;59.70
65235;DHT22;51820;48.374;10.930;2022-09-02T05:07:05;14.50;59.90
65235;DHT22;51820;48.374;10.930;2022-09-02T05:19:47;13.10;73.90
65235;DHT22;51820;48.374;10.930;2022-09-02T05:22:18;13.60;77.50
65235;DHT22;51820;48.374;10.930;2022-09-02T05:27:16;14.40;60.70
65235;DHT22;51820;48.374;10.930;2022-09-02T05:37:17;14.50;60.70
65235;DHT22;51820;48.374;10.930;2022-09-02T05:39:47;13.30;71.90
65235;DHT22;51820;48.374;10.930;2022-09-02T05:44:48;14.10;77.50
65235;DHT22;51820;48.374;10.930;2022-09-02T05:52:18;14.60;61.20
65235;DHT22;51820;48.374;10.930;2022-09-02T05:57:20;14.30;77.90
65235;DHT22;51820;48.374;10.930;2022-09-02T06:00:09;19.50;80.50
65235;DHT22;51820;48.374;10.930;2022-09-02T06:08:08;13.70;77.60
65235;DHT22;51820;48.374;10.930;2022-09-02T06:10:40;14.20;77.90
65235;DHT22;51820;48.374;10.930;2022-09-02T06:15:43;12.90;77.20
65235;DHT22;51820;48.374;10.930;2022-09-02T06:18:13;13.70;77.50
65235;DHT22;51820;48.374;10.930;2022-09-02T06:23:14;15.00;62.00
65235;DHT22;51820;48.374;10.930;2022-09-02T06:25:46;15.00;61.90
65235;DHT22;51820;48.374;10.930;2022-09-02T06:28:15;19.00;80.10
65235;DHT22;51820;48.374;10.930;2022-09-02T06:30:46;15.10;61.70
65235;DHT22;51820;48.374;10.930;2022-09-02T06:33:21;19.70;80.60
65235;DHT22;51820;48.374;10.930;2022-09-02T06:35:50;12.80;76.50
65235;DHT22;51820;48.374;10.930;2022-09-02T06:38:20;15.10;61.50
65235;DHT22;51820;48.374;10.930;2022-09-02T06:40:51;13.20;77.20
65235;DHT22;51820;48.374;10.930;2022-09-02T06:46:31;15.20;62.40
65235;DHT22;51820;48.374;10.930;2022-09-02T06:49:02;15.30;62.30
65235;DHT22;51820;48.374;10.930;2022-09-02T06:51:32;19.60;80.70
65235;DHT22;51820;48.374;10.930;2022-09-02T06:54:05;14.80;78.30
65235;DHT22;51820;48.374;10.930;2022-09-02T06:56:35;15.00;78.80
65235;DHT22;51820;48.374;10.930;2022-09-02T06:59:05;13.80;70.60
65235;DHT22;51820;48.374;10.930;2022-09-02T07:01:49;15.40;64.50
65235;DHT22;51820;48.374;10.930;2022-09-02T07:04:21;14.50;79.90
65235;DHT22;51820;48.374;10.930;2022-09-02T07:09:50;15.50;63.80
65235;DHT22;51820;48.374;10.930;2022-09-02T07:12:19;15.10;80.20
65235;DHT22;51820;48.374;10.930;2022-09-02T07:20:03;15.00;80.70
65235;DHT22;51820;48.374;10.930;2022-09-02T07:22:37;13.60;79.60
65235;DHT22;51820;48.374;10.930;2022-09-02T07:25:09;15.60;64.80
65235;DHT22;51820;48.374;10.930;2022-09-02T07:30:09;15.70;64.00
65235;DHT22;51820;48.374;10.930;2022-09-02T07:32:39;14.10;80.00
65235;DHT22;51820;48.374;10.930;2022-09-02T07:35:08;15.70;64.00
65235;DHT22;51820;48.374;10.930;2022-09-02T07:40:10;15.10;81.10
65235;DHT22;51820;48.374;10.930;2022-09-02T07:42:40;19.40;82.70
65235;DHT22;51820;48.374;10.930;2022-09-02T07:47:40;14.50;65.10
65235;DHT22;51820;48.374;10.930;2022-09-02T07:52:47;14.50;79.40
65235;DHT22;51820;48.374;10.930;2022-09-02T07:55:18;16.00;64.90
65235;DHT22;51820;48.374;10.930;2022-09-02T08:00:19;16.10;64.70
65235;DHT22;51820;48.374;10.930;2022-09-02T08:05:27;16.20;65.40
65235;DHT22;51820;48.374;10.930;2022-09-02T08:14:54;16.40;64.80
65235;DHT22;51820;48.374;10.930;2022-09-02T08:22:21;15.70;78.80
65235;DHT22;51820;48.374;10.930;2022-09-02T08:24:49;14.70;68.90
65235;DHT22;51820;48.374;10.930;2022-09-02T08:29:47;15.30;76.10
65235;DHT22;51820;48.374;10.930;2022-09-02T08:33:04;16.70;59.90
65235;DHT22;51820;48.374;10.930;2022-09-02T08:40:34;17.00;58.80
65235;DHT22;51820;48.374;10.930;2022-09-02T08:43:11;17.20;58.20
65235;DHT22;51820;48.374;10.930;2022-09-02T08:45:42;17.40;59.20
65235;DHT22;51820;48.374;10.930;2022-09-02T08:48:17;15.60;70.60
65235;DHT22;51820;48.374;10.930;2022-09-02T08:56:03;18.00;55.70
65235;DHT22;51820;48.374;10.930;2022-09-02T08:58:38;18.10;53.90
65235;DHT22;51820;48.374;10.930;2022-09-02T09:01:14;17.80;55.20
65235;DHT22;51820;48.374;10.930;2022-09-02T09:04:10;18.40;50.80
65235;DHT22;51820;48.374;10.930;2022-09-02T09:06:58;22.90;53.50
65235;DHT22;51820;48.374;10.930;2022-09-02T09:09:38;18.80;50.80
65235;DHT22;51820;48.374;10.930;2022-09-02T09:12:14;16.50;63.90
65235;DHT22;51820;48.374;10.930;2022-09-02T09:14:48;19.10;49.40
65235;DHT22;51820;48.374;10.930;2022-09-02T09:17:26;18.80;64.00
65235;DHT22;51820;48.374;10.930;2022-09-02T09:19:59;24.20;53.20
65235;DHT22;51820;48.374;10.930;2022-09-02T09:22:30;18.50;60.80
65235;DHT22;51820;48.374;10.930;2022-09-02T09:25:06;18.50;62.10
65235;DHT22;51820;48.374;10.930;2022-09-02T09:27:37;18.60;61.30
65235;DHT22;51820;48.374;10.930;2022-09-02T09:30:06;24.60;63.80
65235;DHT22;51820;48.374;10.930;2022-09-02T09:32:43;19.60;59.70
65235;DHT22;51820;48.374;10.930;2022-09-02T09:35:15;20.40;46.40
65235;DHT22;51820;48.374;10.930;2022-09-02T09:37:45;20.10;58.90
65235;DHT22;51820;48.374;10.930;2022-09-02T09:40:35;25.40;60.40
65235;DHT22;51820;48.374;10.930;2022-09-02T09:43:13;20.70;56.30
65235;DHT22;51820;48.374;10.930;2022-09-02T09:45:43;19.00;52.60
65235;DHT22;51820;48.374;10.930;2022-09-02T09:48:19;20.30;53.70
65235;DHT22;51820;48.374;10.930;2022-09-02T09:51:14;19.00;52.20
65235;DHT22;51820;48.374;10.930;2022-09-02T09:53:43;24.40;53.10
65235;DHT22;51820;48.374;10.930;2022-09-02T09:56:28;25.70;54.20
65235;DHT22;51820;48.374;10.930;2022-09-02T09:59:06;21.80;37.90
65235;DHT22;51820;48.374;10.930;2022-09-02T10:01:35;21.00;50.50
65235;DHT22;51820;48.374;10.930;2022-09-02T10:04:06;20.10;49.40
65235;DHT22;51820;48.374;10.930;2022-09-02T10:07:03;20.20;48.80
65235;DHT22;51820;48.374;10.930;2022-09-02T10:09:42;20.30;47.70
65235;DHT22;51820;48.374;10.930;2022-09-02T10:12:11;26.90;50.80
65235;DHT22;51820;48.374;10.930;2022-09-02T10:14:51;26.50;51.30
65235;DHT22;51820;48.374;10.930;2022-09-02T10:17:40;22.50;35.20
65235;DHT22;51820;48.374;10.930;2022-09-02T10:20:39;24.60;35.30
65235;DHT22;51820;48.374;10.930;2022-09-02T10:23:51;22.70;33.60
65235;DHT22;51820;48.374;10.930;2022-09-02T10:26:36;20.70;46.40
65235;DHT22;51820;48.374;10.930;2022-09-02T10:32:24;20.50;44.70
65235;DHT22;51820;48.374;10.930;2022-09-02T10:35:02;22.00;45.50
65235;DHT22;51820;48.374;10.930;2022-09-02T10:37:38;21.10;41.90
65235;DHT22;51820;48.374;10.930;2022-09-02T10:40:15;23.20;31.80
65235;DHT22;51820;48.374;10.930;2022-09-02T10:42:54;23.30;30.50
65235;DHT22;51820;48.374;10.930;2022-09-02T10:45:33;27.70;44.30
65235;DHT22;51820;48.374;10.930;2022-09-02T10:48:12;21.70;40.70
65235;DHT22;51820;48.374;10.930;2022-09-02T10:50:48;21.80;38.90
65235;DHT22;51820;48.374;10.930;2022-09-02T10:53:35;23.40;30.00
65235;DHT22;51820;48.374;10.930;2022-09-02T10:56:20;23.40;29.80
65235;DHT22;51820;48.374;10.930;2022-09-02T11:00:13;23.50;30.00
65235;DHT22;51820;48.374;10.930;2022-09-02T11:26:21;24.30;27.80
65235;DHT22;51820;48.374;10.930;2022-09-02T11:44:22;24.30;39.60
65235;DHT22;51820;48.374;10.930;2022-09-02T11:47:30;24.50;34.00
65235;DHT22;51820;48.374;10.930;2022-09-02T11:50:45;25.00;29.60
65235;DHT22;51820;48.374;10.930;2022-09-02T11:53:34;24.10;40.80
65235;DHT22;51820;48.374;10.930;2022-09-02T11:56:12;24.90;38.90
65235;DHT22;51820;48.374;10.930;2022-09-02T11:58:43;25.20;38.20
65235;DHT22;51820;48.374;10.930;2022-09-02T12:01:30;23.70;36.30
65235;DHT22;51820;48.374;10.930;2022-09-02T12:04:04;24.30;36.80
65235;DHT22;51820;48.374;10.930;2022-09-02T12:07:23;25.60;37.20
65235;DHT22;51820;48.374;10.930;2022-09-02T12:09:59;25.00;35.70
65235;DHT22;51820;48.374;10.930;2022-09-02T12:21:13;25.60;31.90
65235;DHT22;51820;48.374;10.930;2022-09-02T12:24:18;25.80;31.20
65235;DHT22;51820;48.374;10.930;2022-09-02T12:27:21;25.50;30.30
65235;DHT22;51820;48.374;10.930;2022-09-02T12:29:50;26.30;31.50
65235;DHT22;51820;48.374;10.930;2022-09-02T12:35:51;27.20;32.10
65235;DHT22;51820;48.374;10.930;2022-09-02T12:38:30;27.00;32.50
65235;DHT22;51820;48.374;10.930;2022-09-02T12:41:28;26.50;32.40
65235;DHT22;51820;48.374;10.930;2022-09-02T12:44:10;26.70;33.00
65235;DHT22;51820;48.374;10.930;2022-09-02T12:47:00;26.40;32.70
65235;DHT22;51820;48.374;10.930;2022-09-02T12:49:42;26.30;32.30
65235;DHT22;51820;48.374;10.930;2022-09-02T12:52:39;26.30;32.00
65235;DHT22;51820;48.374;10.930;2022-09-02T12:55:18;27.00;33.00
65235;DHT22;51820;48.374;10.930;2022-09-02T12:57:51;23.30;33.10
65235;DHT22;51820;48.374;10.930;2022-09-02T13:00:28;26.30;25.70
65235;DHT22;51820;48.374;10.930;2022-09-02T13:03:08;25.60;33.80
65235;DHT22;51820;48.374;10.930;2022-09-02T13:05:52;26.60;33.90
65235;DHT22;51820;48.374;10.930;2022-09-02T13:08:42;26.10;25.70
65235;DHT22;51820;48.374;10.930;2022-09-02T13:11:51;25.10;34.20
65235;DHT22;51820;48.374;10.930;2022-09-02T13:18:16;25.70;34.90
65235;DHT22;51820;48.374;10.930;2022-09-02T13:21:04;24.50;34.00
65235;DHT22;51820;48.374;10.930;2022-09-02T13:30:07;25.10;35.00
65235;DHT22;51820;48.374;10.930;2022-09-02T13:33:06;25.70;35.80
65235;DHT22;51820;48.374;10.930;2022-09-02T13:35:36;23.90;35.50
65235;DHT22;51820;48.374;10.930;2022-09-02T13:38:09;24.20;36.20
65235;DHT22;51820;48.374;10.930;2022-09-02T13:43:17;25.30;36.10
65235;DHT22;51820;48.374;10.930;2022-09-02T13:45:47;24.50;36.00
65235;DHT22;51820;48.374;10.930;2022-09-02T13:48:18;25.30;36.60
65235;DHT22;51820;48.374;10.930;2022-09-02T13:50:50;24.80;36.00
65235;DHT22;51820;48.374;10.930;2022-09-02T13:53:23;23.70;35.30
65235;DHT22;51820;48.374;10.930;2022-09-02T13:56:13;25.40;26.20
65235;DHT22;51820;48.374;10.930;2022-09-02T13:58:46;25.40;26.30
65235;DHT22;51820;48.374;10.930;2022-09-02T14:01:24;25.30;37.20
65235;DHT22;51820;48.374;10.930;2022-09-02T14:03:57;25.30;36.60
65235;DHT22;51820;48.374;10.930;2022-09-02T14:06:28;23.30;36.50
65235;DHT22;51820;48.374;10.930;2022-09-02T14:08:59;25.10;26.30
65235;DHT22;51820;48.374;10.930;2022-09-02T14:11:39;24.80;36.80
65235;DHT22;51820;48.374;10.930;2022-09-02T14:14:12;24.10;35.90
65235;DHT22;51820;48.374;10.930;2022-09-02T14:19:11;25.20;27.00
65235;DHT22;51820;48.374;10.930;2022-09-02T14:21:51;25.20;26.60
65235;DHT22;51820;48.374;10.930;2022-09-02T14:25:12;25.10;26.60
65235;DHT22;51820;48.374;10.930;2022-09-02T14:27:47;25.10;27.00
65235;DHT22;51820;48.374;10.930;2022-09-02T14:30:28;25.10;26.80
65235;DHT22;51820;48.374;10.930;2022-09-02T14:33:26;25.10;26.80
65235;DHT22;51820;48.374;10.930;2022-09-02T14:35:57;25.20;37.20
65235;DHT22;51820;48.374;10.930;2022-09-02T14:38:27;24.50;36.80
65235;DHT22;51820;48.374;10.930;2022-09-02T14:41:00;24.60;36.40
65235;DHT22;51820;48.374;10.930;2022-09-02T14:43:39;25.10;36.70
65235;DHT22;51820;48.374;10.930;2022-09-02T14:46:25;23.40;36.20
65235;DHT22;51820;48.374;10.930;2022-09-02T14:48:58;24.80;27.00
65235;DHT22;51820;48.374;10.930;2022-09-02T14:51:33;23.50;35.90
65235;DHT22;51820;48.374;10.930;2022-09-02T14:54:04;24.80;27.70
65235;DHT22;51820;48.374;10.930;2022-09-02T14:56:46;24.80;28.40
65235;DHT22;51820;48.374;10.930;2022-09-02T14:59:14;24.60;36.30
65235;DHT22;51820;48.374;10.930;2022-09-02T15:01:46;24.40;28.60
65235;DHT22;51820;48.374;10.930;2022-09-02T15:04:17;24.90;36.70
65235;DHT22;51820;48.374;10.930;2022-09-02T15:06:48;24.60;27.00
65235;DHT22;51820;48.374;10.930;2022-09-02T15:11:48;24.10;36.80
65235;DHT22;51820;48.374;10.930;2022-09-02T15:14:31;24.50;27.40
65235;DHT22;51820;48.374;10.930;2022-09-02T15:17:30;24.50;27.30
65235;DHT22;51820;48.374;10.930;2022-09-02T15:19:59;23.00;36.40
65235;DHT22;51820;48.374;10.930;2022-09-02T15:22:30;24.50;27.60
65235;DHT22;51820;48.374;10.930;2022-09-02T15:24:58;28.40;40.60
65235;DHT22;51820;48.374;10.930;2022-09-02T15:27:27;23.80;36.70
65235;DHT22;51820;48.374;10.930;2022-09-02T15:35:44;24.50;38.90
65235;DHT22;51820;48.374;10.930;2022-09-02T15:38:20;23.30;38.30
65235;DHT22;51820;48.374;10.930;2022-09-02T15:43:23;23.30;37.70
65235;DHT22;51820;48.374;10.930;2022-09-02T15:48:21;24.60;38.40
65235;DHT22;51820;48.374;10.930;2022-09-02T15:51:10;24.20;27.50
65235;DHT22;51820;48.374;10.930;2022-09-02T15:53:38;24.10;38.50
65235;DHT22;51820;48.374;10.930;2022-09-02T15:56:15;23.10;37.50
65235;DHT22;51820;48.374;10.930;2022-09-02T15:58:46;22.90;37.80
65235;DHT22;51820;48.374;10.930;2022-09-02T16:01:14;22.60;37.10
65235;DHT22;51820;48.374;10.930;2022-09-02T16:03:45;23.00;37.60
65235;DHT22;51820;48.374;10.930;2022-09-02T16:06:31;23.90;27.50
65235;DHT22;51820;48.374;10.930;2022-09-02T16:15:35;22.30;38.00
65235;DHT22;51820;48.374;10.930;2022-09-02T16:18:03;22.20;38.30
65235;DHT22;51820;48.374;10.930;2022-09-02T16:20:57;23.10;39.50
65235;DHT22;51820;48.374;10.930;2022-09-02T16:23:27;23.80;28.10
65235;DHT22;51820;48.374;10.930;2022-09-02T16:26:12;25.60;30.30
65235;DHT22;51820;48.374;10.930;2022-09-02T16:28:43;23.80;28.10
65235;DHT22;51820;48.374;10.930;2022-09-02T16:31:13;22.60;38.80
65235;DHT22;51820;48.374;10.930;2022-09-02T16:33:44;23.40;39.60
65235;DHT22;51820;48.374;10.930;2022-09-02T16:38:48;23.60;28.60
65235;DHT22;51820;48.374;10.930;2022-09-02T16:41:23;22.50;38.60
65235;DHT22;51820;48.374;10.930;2022-09-02T16:43:53;22.00;38.50
65235;DHT22;51820;48.374;10.930;2022-09-02T16:46:23;23.50;28.70
65235;DHT22;51820;48.374;10.930;2022-09-02T16:53:53;23.30;29.00
65235;DHT22;51820;48.374;10.930;2022-09-02T16:56:23;22.20;40.60
65235;DHT22;51820;48.374;10.930;2022-09-02T17:01:21;22.70;40.60
65235;DHT22;51820;48.374;10.930;2022-09-02T17:03:50;22.30;40.70
65235;DHT22;51820;48.374;10.930;2022-09-02T17:06:18;22.90;40.80
65235;DHT22;51820;48.374;10.930;2022-09-02T17:08:46;20.60;41.70
65235;DHT22;51820;48.374;10.930;2022-09-02T17:11:19;23.10;29.70
65235;DHT22;51820;48.374;10.930;2022-09-02T17:13:49;21.40;40.70
65235;DHT22;51820;48.374;10.930;2022-09-02T17:16:19;23.00;30.40
65235;DHT22;51820;48.374;10.930;2022-09-02T17:18:48;21.70;41.60
65235;DHT22;51820;48.374;10.930;2022-09-02T17:21:22;22.90;29.80
65235;DHT22;51820;48.374;10.930;2022-09-02T17:24:00;22.90;30.00
65235;DHT22;51820;48.374;10.930;2022-09-02T17:27:11;21.80;29.40
65235;DHT22;51820;48.374;10.930;2022-09-02T17:29:48;22.80;30.00
65235;DHT22;51820;48.374;10.930;2022-09-02T17:37:51;26.70;45.50
65235;DHT22;51820;48.374;10.930;2022-09-02T17:43:05;22.10;46.20
65235;DHT22;51820;48.374;10.930;2022-09-02T17:53:50;22.20;31.10
65235;DHT22;51820;48.374;10.930;2022-09-02T18:01:56;22.10;31.40
65235;DHT22;51820;48.374;10.930;2022-09-02T18:04:39;20.50;44.00
65235;DHT22;51820;48.374;10.930;2022-09-02T18:07:29;21.10;44.50
65235;DHT22;51820;48.374;10.930;2022-09-02T18:12:30;20.60;44.40
65235;DHT22;51820;48.374;10.930;2022-09-02T18:15:01;20.70;45.50
65235;DHT22;51820;48.374;10.930;2022-09-02T18:17:34;21.60;45.80
65235;DHT22;51820;48.374;10.930;2022-09-02T18:20:07;20.20;44.90
65235;DHT22;51820;48.374;10.930;2022-09-02T18:22:58;21.70;32.40
65235;DHT22;51820;48.374;10.930;2022-09-02T18:25:48;21.60;32.10
65235;DHT22;51820;48.374;10.930;2022-09-02T18:28:35;20.60;46.10
65235;DHT22;51820;48.374;10.930;2022-09-02T18:31:18;20.70;46.10
65235;DHT22;51820;48.374;10.930;2022-09-02T18:33:57;21.10;46.10
65235;DHT22;51820;48.374;10.930;2022-09-02T18:36:34;21.40;32.90
65235;DHT22;51820;48.374;10.930;2022-09-02T18:39:26;21.30;33.00
65235;DHT22;51820;48.374;10.930;2022-09-02T18:42:13;19.70;45.60
65235;DHT22;51820;48.374;10.930;2022-09-02T18:46:08;19.80;46.00
65235;DHT22;51820;48.374;10.930;2022-09-02T18:48:22;21.20;33.50
65235;DHT22;51820;48.374;10.930;2022-09-02T18:51:37;21.20;33.50
65235;DHT22;51820;48.374;10.930;2022-09-02T18:54:12;21.10;35.20
65235;DHT22;51820;48.374;10.930;2022-09-02T18:58:45;21.10;33.60
65235;DHT22;51820;48.374;10.930;2022-09-02T19:00:43;21.50;37.50
65235;DHT22;51820;48.374;10.930;2022-09-02T19:08:56;20.90;34.10
65235;DHT22;51820;48.374;10.930;2022-09-02T19:12:09;20.80;34.80
65235;DHT22;51820;48.374;10.930;2022-09-02T19:17:52;20.80;34.70
65235;DHT22;51820;48.374;10.930;2022-09-02T19:28:41;20.60;35.20
65235;DHT22;51820;48.374;10.930;2022-09-02T19:45:57;22.30;36.70
65235;DHT22;51820;48.374;10.930;2022-09-02T19:51:18;19.10;49.30
65235;DHT22;51820;48.374;10.930;2022-09-02T19:53:54;20.30;35.80
65235;DHT22;51820;48.374;10.930;2022-09-02T20:00:12;24.60;54.70
65235;DHT22;51820;48.374;10.930;2022-09-02T20:03:38;20.10;36.70
65235;DHT22;51820;48.374;10.930;2022-09-02T20:09:33;18.40;50.70
65235;DHT22;51820;48.374;10.930;2022-09-02T20:14:37;19.60;51.40
65235;DHT22;51820;48.374;10.930;2022-09-02T20:17:09;20.10;36.90
65235;DHT22;51820;48.374;10.930;2022-09-02T20:19:43;20.10;36.80
65235;DHT22;51820;48.374;10.930;2022-09-02T20:22:12;20.90;37.20
65235;DHT22;51820;48.374;10.930;2022-09-02T20:25:27;20.00;37.30
65235;DHT22;51820;48.374;10.930;2022-09-02T20:28:08;19.90;37.20
65235;DHT22;51820;48.374;10.930;2022-09-02T20:30:44;19.90;37.50
65235;DHT22;51820;48.374;10.930;2022-09-02T20:33:16;19.20;52.60
65235;DHT22;51820;48.374;10.930;2022-09-02T20:36:39;19.80;37.80
65235;DHT22;51820;48.374;10.930;2022-09-02T20:41:14;19.80;37.70
65235;DHT22;51820;48.374;10.930;2022-09-02T20:52:01;19.60;38.00
65235;DHT22;51820;48.374;10.930;2022-09-02T21:08:28;19.40;39.10
65235;DHT22;51820;48.374;10.930;2022-09-02T21:12:22;19.40;39.20
65235;DHT22;51820;48.374;10.930;2022-09-02T21:15:48;19.30;39.10
65235;DHT22;51820;48.374;10.930;2022-09-02T21:19:31;19.40;39.30
65235;DHT22;51820;48.374;10.930;2022-09-02T21:22:05;19.40;39.40
65235;DHT22;51820;48.374;10.930;2022-09-02T21:24:42;19.40;39.50
65235;DHT22;51820;48.374;10.930;2022-09-02T21:27:33;19.40;39.30
65235;DHT22;51820;48.374;10.930;2022-09-02T21:34:43;19.30;39.80
65235;DHT22;51820;48.374;10.930;2022-09-02T21:37:15;18.10;54.80
65235;DHT22;51820;48.374;10.930;2022-09-02T21:39:51;17.40;54.30
65235;DHT22;51820;48.374;10.930;2022-09-02T21:42:26;19.40;54.80
65235;DHT22;51820;48.374;10.930;2022-09-02T21:45:08;17.70;54.30
65235;DHT22;51820;48.374;10.930;2022-09-02T21:47:44;19.20;40.10
65235;DHT22;51820;48.374;10.930;2022-09-02T21:50:21;19.30;40.00
65235;DHT22;51820;48.374;10.930;2022-09-02T21:52:59;19.20;39.60
65235;DHT22;51820;48.374;10.930;2022-09-02T21:55:41;18.00;53.80
65235;DHT22;51820;48.374;10.930;2022-09-02T21:58:34;16.80;54.10
65235;DHT22;51820;48.374;10.930;2022-09-02T22:01:09;19.20;40.20
65235;DHT22;51820;48.374;10.930;2022-09-02T22:03:45;19.20;40.20
65235;DHT22;51820;48.374;10.930;2022-09-02T22:06:23;18.60;54.70
65235;DHT22;51820;48.374;10.930;2022-09-02T22:08:57;19.20;40.00
65235;DHT22;51820;48.374;10.930;2022-09-02T22:11:35;19.20;40.10
65235;DHT22;51820;48.374;10.930;2022-09-02T22:14:10;17.20;53.80
65235;DHT22;51820;48.374;10.930;2022-09-02T22:16:50;19.10;40.00
65235;DHT22;51820;48.374;10.930;2022-09-02T22:19:25;19.10;40.10
65235;DHT22;51820;48.374;10.930;2022-09-02T22:22:02;19.00;40.30
65235;DHT22;51820;48.374;10.930;2022-09-02T22:27:10;18.90;40.50
65235;DHT22;51820;48.374;10.930;2022-09-02T22:29:42;17.20;54.80
65235;DHT22;51820;48.374;10.930;2022-09-02T22:32:14;18.80;41.10
65235;DHT22;51820;48.374;10.930;2022-09-02T22:34:49;18.80;41.60
65235;DHT22;51820;48.374;10.930;2022-09-02T22:37:28;18.80;42.10
65235;DHT22;51820;48.374;10.930;2022-09-02T22:40:14;18.70;41.90
65235;DHT22;51820;48.374;10.930;2022-09-02T22:42:49;18.80;42.90
65235;DHT22;51820;48.374;10.930;2022-09-02T22:45:22;17.80;57.30
65235;DHT22;51820;48.374;10.930;2022-09-02T22:48:12;18.80;57.40
65235;DHT22;51820;48.374;10.930;2022-09-02T22:51:38;18.80;42.40
65235;DHT22;51820;48.374;10.930;2022-09-02T22:54:26;17.20;56.70
65235;DHT22;51820;48.374;10.930;2022-09-02T22:57:05;18.80;42.30
65235;DHT22;51820;48.374;10.930;2022-09-02T22:59:45;21.70;44.30
65235;DHT22;51820;48.374;10.930;2022-09-02T23:02:19;18.80;42.00
65235;DHT22;51820;48.374;10.930;2022-09-02T23:05:01;18.70;41.80
65235;DHT22;51820;48.374;10.930;2022-09-02T23:07:30;16.70;56.60
65235;DHT22;51820;48.374;10.930;2022-09-02T23:09:59;18.80;42.30
65235;DHT22;51820;48.374;10.930;2022-09-02T23:12:32;18.70;42.10
65235;DHT22;51820;48.374;10.930;2022-09-02T23:15:15;18.70;42.10